TimeCDT,TemperatureF,Dew PointF,Humidity,Sea Level PressureIn,VisibilityMPH,Wind Direction,Wind SpeedMPH,Gust SpeedMPH,PrecipitationIn,Events,Conditions,WindDirDegrees,DateUTC
12:03 AM,66.2,62.6,88,29.98,10.0,NE,3.5,-,N/A,,Overcast,50,2013-04-01 05:03:00
12:24 AM,68.0,62.6,83,29.98,10.0,ENE,4.6,-,N/A,,Overcast,60,2013-04-01 05:24:00
12:51 AM,66.2,64.4,94,29.98,10.0,East,4.6,-,N/A,,Overcast,90,2013-04-01 05:51:00
12:53 AM,66.9,64.0,90,29.96,10.0,East,3.5,-,N/A,,Overcast,80,2013-04-01 05:53:00
1:03 AM,66.2,64.4,94,29.98,10.0,ESE,4.6,-,N/A,,Overcast,110,2013-04-01 06:03:00
1:14 AM,66.2,64.4,94,29.97,10.0,East,5.8,-,N/A,,Overcast,100,2013-04-01 06:14:00
1:53 AM,66.9,63.0,87,29.96,10.0,East,3.5,-,N/A,,Overcast,100,2013-04-01 06:53:00
2:53 AM,66.9,62.1,84,29.96,10.0,Calm,Calm,-,N/A,,Overcast,0,2013-04-01 07:53:00
3:53 AM,66.0,62.1,87,29.97,10.0,ENE,3.5,-,N/A,,Overcast,70,2013-04-01 08:53:00
4:53 AM,66.0,62.1,87,29.97,10.0,South,4.6,-,N/A,,Overcast,180,2013-04-01 09:53:00
5:53 AM,66.0,63.0,90,30.00,10.0,Calm,Calm,-,N/A,,Overcast,0,2013-04-01 10:53:00
6:53 AM,66.0,63.0,90,30.01,10.0,ENE,5.8,-,N/A,,Overcast,60,2013-04-01 11:53:00
7:53 AM,66.0,63.0,90,30.03,10.0,ENE,4.6,-,N/A,,Overcast,60,2013-04-01 12:53:00
8:53 AM,66.9,63.0,87,30.04,10.0,East,5.8,-,N/A,,Mostly Cloudy,80,2013-04-01 13:53:00
9:53 AM,69.1,64.0,84,30.05,10.0,East,3.5,-,N/A,,Overcast,100,2013-04-01 14:53:00
10:32 AM,69.8,64.4,83,30.07,10.0,East,4.6,-,N/A,,Overcast,80,2013-04-01 15:32:00
10:53 AM,71.1,64.0,78,30.06,10.0,East,4.6,-,N/A,,Overcast,80,2013-04-01 15:53:00
11:53 AM,75.0,64.9,71,30.05,10.0,ESE,5.8,-,N/A,,Overcast,110,2013-04-01 16:53:00
12:45 PM,77.0,62.6,61,30.05,10.0,Calm,Calm,-,N/A,,Mostly Cloudy,0,2013-04-01 17:45:00
12:53 PM,77.0,63.0,62,30.04,10.0,Calm,Calm,-,N/A,,Overcast,0,2013-04-01 17:53:00
1:17 PM,78.8,64.4,61,30.04,10.0,Calm,Calm,-,N/A,,Overcast,0,2013-04-01 18:17:00
1:53 PM,79.0,62.1,56,30.01,10.0,Calm,Calm,-,N/A,,Mostly Cloudy,0,2013-04-01 18:53:00
2:53 PM,79.0,62.1,56,29.99,10.0,Calm,Calm,-,N/A,,Mostly Cloudy,0,2013-04-01 19:53:00
3:53 PM,82.0,63.0,52,29.96,10.0,East,5.8,-,N/A,,Overcast,100,2013-04-01 20:53:00
4:53 PM,82.0,62.1,51,29.95,10.0,South,10.4,-,N/A,,Clear,180,2013-04-01 21:53:00
5:53 PM,81.0,62.1,52,29.93,10.0,ESE,9.2,-,N/A,,Clear,120,2013-04-01 22:53:00
6:53 PM,80.1,62.1,54,29.92,10.0,ESE,10.4,-,N/A,,Clear,120,2013-04-01 23:53:00
7:53 PM,75.9,62.1,62,29.92,10.0,SE,5.8,-,N/A,,Partly Cloudy,130,2013-04-02 00:53:00
8:53 PM,73.0,62.1,68,29.95,10.0,SE,5.8,-,N/A,,Clear,130,2013-04-02 01:53:00
9:53 PM,72.0,62.1,71,29.97,10.0,ESE,5.8,-,N/A,,Clear,110,2013-04-02 02:53:00
10:53 PM,71.1,62.1,73,29.99,10.0,SSE,9.2,-,N/A,,Clear,150,2013-04-02 03:53:00
11:53 PM,69.1,62.1,78,29.99,10.0,South,12.7,-,N/A,,Clear,170,2013-04-02 04:53:00